Timeline UpdatesTrip UpdatesNews PostsPvt Posts♥♥Travel TipsAdmin PostsConv PostsFollowed PostsChat RequestsBlog PostsPNR Posts

Disclaimer
Search
 
 
Fri Oct 31, 2014 11:46:01 ISTHomeTrainsΣChainsAtlasPNRForumGalleryNewsFAQTripsMembersLoginFeedback
No Recent News for this Train
Other Trains in the News **new
Latest...
⇐ Return Journey: Train# 53043

53044/Rajgir - Howrah Fast Passenger (UnReserved)

Time-Table HAS CHANGED.
Sep 03 2014 (12:25AM)
Change Departure Station:
Change Arrival Station:
Post a Train Travel TipPost a Train Travel Tip **new
Post a Comment/Question/Picture/VideoPost a Comment/Question/Picture/Video
Pantry/Catering
✕ NO Pantry Car
✕ NO Catering
RSA - Rake Sharing
Rake/Coach Composition
Loco
HWH WDM 3A/3D
News    PNR    Forum    Time-Table    Availability    Fare Chart    Map    Arr/Dep History    Trips    Gallery    ΣChains    X/O    Timeline    
Travel Time: 16h 12m    48 halts    Distance: 480 km    Avg Speed: 29 km/hr
Type: Passenger
Zone: ER/Eastern
Departs @ 19:58 (Avg 1h 35m late)
Platform# 1
SMTWTFS
Jamalpur Junction/JMP 
Arrives @ 12:10 +1 night (Avg 2h 25m late)
Platform# 1
SMTWTFS
Kolkata Howrah Junction/HWH 

48 halts. 102 intermediate Stations between Jamalpur Junction and Kolkata Howrah Junction

Show ALL intermediate Stations  Show Old Time-Table

#TrkCodeStation NameX/OArrivesAvgDepartsAvgHaltPFDay#KmSpeedElevZoneAddress
1|--|RGDRajgir (3)  -12:40+1:17--1-176.43871mECRRajgir, Bihar
2|--|NLDNalanda (2)  12:58+1:1612:59+1:291m--1-165.24063mECRNational Highway 82, Bihar
3|--|BEHSBihar Sharif (2)  13:18+1:3613:23+1:395m--1-152.63656mECR06112-222306, Bihar
4|--|WENAWena (2)  13:46+1:3613:47+1:361m--1-138.6947mECRWena, Bihar
5|--|HRTHarnaut (3)X  14:21+1:3714:28+1:357m--1-133.55349mECRHarnaut, Bihar
6|--|BKPBakhtiyarpur Junction (5)XO  14:40+1:0715:10+1:4930m--1-122.86851mECRPatna, Bihar
7/==/ATLAthmal Gola (2)  15:18+2:1915:19+2:191m--1-113.85052mECRPatna, Bihar
8/==/BARHBarh (3)X  15:30+1:3615:32+1:422m--1-104.77749mECRBarh, Bihar
9/==/PHKPunarakh (2)  15:40+2:3515:41+2:351m--1-94.52951mECRPunarakh, Bihar
10/==/MORMor (2)XO  15:58+2:3416:27+2:1829m--1-86.34946mECRMor, Bihar
11/==/MKAMokama Junction (4)  16:36+1:2316:40+1:224m--1-79.05648mECRPatna, Bihar
12/==/HTZHathidah Junction (2)X  16:49+2:0516:51+2:052m11-70.64650mECRMusahari, Bihar
13/==/RDUMRampur Dumra (3)OO  16:56+2:2116:57+2:271m--1-66.83746mECRNational Highway 80, Bihar
14/==/BRYABarhiya (3)  17:06+1:3817:08+1:392m--1-61.22247mECRBarahiya, Bihar
15/==/MKBMankatha  17:34+2:1917:40+2:166m--1-51.83047mECRNational Highway 80, Bihar
16/==/LKRLuckeesarai Junction (2)X  17:51+2:2617:53+2:262m--1-46.21252mECRLakhisarai, Bihar
17/==/KIULKiul Junction (5)X  18:00+1:2518:25+1:1925m--1-44.83653mECRDist. Lakhisarai, Bihar
18!==!DNREDhanauri  18:35+2:0518:37+2:082m--1-38.84948mERNational Highway 80, Bihar
19!==!URENUrenX  18:43+2:2318:45+2:222m--1-33.95845mERUren, Bihar
20!==!KJHKajra (2)  18:50+2:1018:51+2:131m--1-29.16250mERLakhisarai District, Bihar
21|==|AHAAbhaipur (3)  18:58+1:5718:59+1:581m--1-21.84852mERAbhaipur, Bihar
22|==|MSDNMasudan (2)  19:04+2:1919:05+2:191m--1-17.86045mERMasudan, Bihar
23|==|DRHDharhara (2)  19:11+2:2019:12+2:201m--1-11.81855mERDharhara, Bihar
24|==|DRTPDasharathpur (2)  19:30+2:0819:31+2:101m--1-6.43248mERDharhara, Bihar
25|=-|JMPJamalpur Junction (4)»  19:43+1:3519:58+1:3515m110.04259mERDist: Munger 06344-243101, Bihar
26|-=|RPURRatanpur (2)  20:07+2:1820:08+2:181m--16.35846mERRatanpur Railway Station, Bihar
27|==|BUPBariarpur (3)  20:13+2:4020:14+2:441m--111.11142mERMunger, Bihar
28|==|KPRDKalyanpur Road (3)  20:21+2:2320:22+2:231m--112.41040mERMunger, Bihar
29|==|GNNAGangani (2)  20:29+2:2420:30+2:241m--113.613338mERGangania, Bihar
30|==|SGGSultanGanj (3)  20:37+2:0220:40+2:033m--129.16642mERSultanganj, Bihar
31|==|MVVMaheshi (2) new halt!!  20:46-20:47-1m--135.74137mERTilakpur, Bihar
32|==|AKNAkbarnagar (3)  20:52+2:2720:53+2:271m--139.14439mERTilakpur, Bihar
33|==|NATNathnagar (2)  21:01+2:2821:02+2:321m--149.34048mERBhagalpur, Bihar
34|==!BGPBhagalpur Junction (6)X  21:09+2:0221:19+2:0310m--154.05049mERBhagalpur, Bihar
35!==!SBOSabaur (3)  21:28+2:3721:29+2:431m--161.64442mERSabour, Bihar
36!==!LMMLailakh Mamalkha (2)  21:38+2:4421:39+2:481m--168.25836mERLailakh Mamlkha, Bihar
37!==!GGAGhoga (2)  21:45+2:4721:47+2:542m--174.06942mERGhoga, Bihar
38!==!EKCEkchari (1)  21:52+3:0121:53+3:011m1179.75237mERNational Highway 80, Bihar
39!==!CLGKahalgaon (2)  21:58+3:0322:00+3:032m1184.14944mERBhagalpur, Bihar
40!==!SVRPShivanarayanpur (2)X  22:14+3:0522:38+2:5724m--195.54847mERShivanarayanpur, Bihar
41!==!PPTPirpainti (2)  22:49+2:5822:51+3:122m--1104.45653mERBhagalpur, Bihar
42!==!MZCMirza Cheuki (3)X  23:00+3:1523:06+3:186m31112.92638mERBihar, Bihar
43!==!SBGSahibganj Junction (3)X  23:41+3:2223:59+3:2818m11128.05238mERSahibganj, Jharkhand
44!==!SLJSakrigali Junction (3)X  00:08+3:3500:09+3:431m--2135.85345mERSakrigali, Jharkhand
45!==!MJPMaharajpur (2)  00:16+3:4700:17+3:581m--2141.98534mERMoharajpur, Jharkhand
46!==!TLJTaljhari  00:27+4:0200:28+4:141m--2156.15838mERTaljhari, Jharkhand
47!==!KXEKalian Chak  00:33+4:1600:34+4:161m--2160.95845mERKalian Chak, Jharkhand
48!==|TPHTinpahar Junction (3)  00:39+4:1900:42+4:223m22165.75945mERBamangawan, Jharkhand
49|==|BKLEBakudi (3)  00:51+4:2500:52+4:251m--2174.52665mERBakudi, Jharkhand
50|==|BHWBarharwa Junction (3)X  01:10+4:1601:20+4:1610m22182.44436mERBarharwa, Jharkhand
51%==%GMANGumani (3)X  01:30+4:2201:31+4:271m--2189.86731mERGumani, Jharkhand
52%==%KLPKotalpukur (3)XO  01:37+3:1301:39+3:122m--2196.52240mERKotalpukur, Jharkhand
53%==%PKRPakur (2)X  02:10 02:11+3:2202:11 02:16+3:221 5m22208.56337mERDist:- Pakur, Jharkhand
54%==%RJGRajgram (3)  02:26+3:5702:27+3:571m22219.07032mERDist - Birbhum, West Bengal
55%==%MRRMurarai (3)X  02:37+4:3202:38+4:371m--2230.77036mERDist - Birbhum, West Bengal
56%==%NHTNalhati Junction (4)X  02:52+4:4602:54+4:482m22246.92948mERDist - Birbhum, West Bengal
57%==%RPHRampurhat (3)X  03:23+3:4503:43+3:4320m--2261.06741mERDIST - Birbhum, West Bengal
58%==%SNTSainthia Junction (4)  04:08+3:2304:13+3:235m42289.04758mERDist - Birbhum, West Bengal
59%==%AMPAhmadpur Junction (3)O  04:30+5:1404:35 04:32+5:275 2m--2302.32546mERDist - Birbhum, West Bengal
60%==%PNEPrantik (3)  05:08+5:4405:09+5:441m--2317.55148mERDist - Birbhum, West Bengal
61%==%BHPBolpur Shantiniketan (3)  05:14+6:0905:19+6:095m--2321.86059mERDist - Birbhum, West Bengal
62%==%BDHBhedia (2)  05:27+5:5405:28+5:541m--2329.85541mERDist - Bardhaman, West Bengal
63%==%GKHGuskara (2)X  05:40+5:2105:41+5:211m12340.76041mERDist - Bardhaman, West Bengal
64%==%BPSBanpas (3)  05:51+5:2305:52+5:231m--2350.71146mERDist - Bardhaman, West Bengal
65%==/KANKhana Junction (5)X  06:45+5:2406:46+5:241m--2360.45642mERDist - Bardhaman, West Bengal
66/==/BWNBarddhaman Junction (8)XO  07:00+3:4407:20+3:4320m--2373.55034mERDist - Barddhaman, West Bengal
67/==/MYMMemari (4)  07:50+5:0108:00+4:5110m--2398.62225mERMemari, West Bengal
68/==/MUGMagra (3)  09:38+4:2509:43+4:405m--2434.0715mERMagra, West Bengal
69/==/BDCBandel Junction (7)  10:44+2:4710:50+2:486m--2440.83214mERdist - HOOGHLY, West Bengal
70/==/CNSChuchura (3)  10:57-10:58-1m--2444.53615mERDist - HOOGHLY - 712102, West Bengal
71/==/CGRChandan Nagar (3)  11:03+2:5511:05+2:552m--2447.55316mERDist -HOOGHLY - 712136, West Bengal
72/==/SHESeoraphuli Junction (6)  11:17+3:2611:19+3:252m--2458.23013mERBaidyabati, West Bengal
73/==/SRPSerampore (4)X  11:24+4:1311:28+4:124m--2460.72811mERdist - hooghly, West Bengal
74/==/HWHKolkata Howrah Junction (23)•  12:10+2:25-12480.2-10mERHowrah 711101, West Bengal
Scroll to Top
Scroll to Bottom